Temperatura - Umidità - Pioggia orarie del 14-08-2020

Dati orari da stazione meteo del 14-08-2020

Nome Stazione Data Ora Temperatura [°C] Umidità [%] Pioggia [mm] Pressione[hPa]
Sant'Anna di Vinadio 13-08-2020 02:00 14.8 63 0 1024.4
Sant'Anna di Vinadio 13-08-2020 02:10 14.7 62 0 1024.4
Sant'Anna di Vinadio 13-08-2020 02:20 14.7 61 0 1024.3
Sant'Anna di Vinadio 13-08-2020 02:30 14.7 61 0 1024.3
Sant'Anna di Vinadio 13-08-2020 02:40 14.4 63 0 1024.3
Sant'Anna di Vinadio 13-08-2020 02:50 14.3 63 0 1024.2
Sant'Anna di Vinadio 13-08-2020 03:00 14.1 64 0 1024.1
Sant'Anna di Vinadio 13-08-2020 03:10 14.1 63 0 1024.1
Sant'Anna di Vinadio 13-08-2020 03:20 14.2 60 0 1024.2
Sant'Anna di Vinadio 13-08-2020 03:30 14.3 58 0 1024.3
Sant'Anna di Vinadio 13-08-2020 03:40 14.2 59 0 1024.2
Sant'Anna di Vinadio 13-08-2020 03:50 14 59 0 1024.1
Sant'Anna di Vinadio 13-08-2020 04:00 14 60 0 1024.1
Sant'Anna di Vinadio 13-08-2020 04:10 14.1 59 0 1024.1
Sant'Anna di Vinadio 13-08-2020 04:20 14.1 61 0 1023.8
Sant'Anna di Vinadio 13-08-2020 04:30 13.8 63 0 1023.8
Sant'Anna di Vinadio 13-08-2020 04:40 13.9 61 0 1023.7
Sant'Anna di Vinadio 13-08-2020 04:50 13.9 56 0 1023.6
Sant'Anna di Vinadio 13-08-2020 05:00 14 54 0 1023.6
Sant'Anna di Vinadio 13-08-2020 05:10 13.9 54 0 1023.8
Sant'Anna di Vinadio 13-08-2020 05:20 13.9 53 0 1023.7
Sant'Anna di Vinadio 13-08-2020 05:30 13.9 53 0 1023.8
Sant'Anna di Vinadio 13-08-2020 05:40 13.9 53 0 1023.6
Sant'Anna di Vinadio 13-08-2020 05:50 13.8 54 0 1023.6
Sant'Anna di Vinadio 13-08-2020 06:00 13.7 54 0 1023.5
Sant'Anna di Vinadio 13-08-2020 06:10 13.6 54 0 1023.5
Sant'Anna di Vinadio 13-08-2020 06:20 13.6 53 0 1023.5
Sant'Anna di Vinadio 13-08-2020 06:30 13.5 56 0 1023.5
Sant'Anna di Vinadio 13-08-2020 06:40 13.5 55 0 1023.5
Sant'Anna di Vinadio 13-08-2020 06:50 13.5 55 0 1023.6
Sant'Anna di Vinadio 13-08-2020 07:00 13.5 56 0 1023.4
Sant'Anna di Vinadio 13-08-2020 07:10 13.3 56 0 1023.4
Sant'Anna di Vinadio 13-08-2020 07:20 13.3 56 0 1023.4
Sant'Anna di Vinadio 13-08-2020 07:30 13.3 56 0 1023.4
Sant'Anna di Vinadio 13-08-2020 07:40 13.3 56 0 1023.5
Sant'Anna di Vinadio 13-08-2020 07:50 13.4 56 0 1023.5
Sant'Anna di Vinadio 13-08-2020 08:00 13.5 54 0 1023.6
Sant'Anna di Vinadio 13-08-2020 08:10 13.6 54 0 1023.6
Sant'Anna di Vinadio 13-08-2020 08:20 13.8 52 0 1023.7
Sant'Anna di Vinadio 13-08-2020 08:30 13.9 52 0 1023.7
Sant'Anna di Vinadio 13-08-2020 08:40 14.1 52 0 1023.7
Sant'Anna di Vinadio 13-08-2020 08:50 14.2 52 0 1023.8
Sant'Anna di Vinadio 13-08-2020 09:00 14.3 52 0 1023.8
Sant'Anna di Vinadio 13-08-2020 09:10 14.3 52 0 1023.9
Sant'Anna di Vinadio 13-08-2020 09:20 14.5 52 0 1023.9
Sant'Anna di Vinadio 13-08-2020 09:30 15.2 53 0 1023.9
Sant'Anna di Vinadio 13-08-2020 09:40 15.3 51 0 1023.8
Sant'Anna di Vinadio 13-08-2020 09:50 15.2 52 0 1023.8
Sant'Anna di Vinadio 13-08-2020 10:00 15.9 52 0 1023.8
Sant'Anna di Vinadio 13-08-2020 10:10 16.1 51 0 1023.9
Sant'Anna di Vinadio 13-08-2020 10:20 15.8 52 0 1023.9
Sant'Anna di Vinadio 13-08-2020 10:30 15.8 52 0 1023.9
Sant'Anna di Vinadio 13-08-2020 10:40 15.7 53 0 1024
Sant'Anna di Vinadio 13-08-2020 10:50 15.2 54 0 1024
Sant'Anna di Vinadio 13-08-2020 11:00 15.2 54 0 1024
Sant'Anna di Vinadio 13-08-2020 11:10 15.2 54 0 1024.1
Sant'Anna di Vinadio 13-08-2020 11:20 16.7 54 0 1024
Sant'Anna di Vinadio 13-08-2020 11:30 16.5 51 0 1023.9
Sant'Anna di Vinadio 13-08-2020 11:40 16.5 52 0 1024
Sant'Anna di Vinadio 13-08-2020 11:50 16.8 50 0 1024
Sant'Anna di Vinadio 13-08-2020 12:00 17.2 48 0 1024.1
Sant'Anna di Vinadio 13-08-2020 12:10 16.2 49 0 1024
Sant'Anna di Vinadio 13-08-2020 12:20 16 50 0 1024.1
Sant'Anna di Vinadio 13-08-2020 12:30 16 53 0 1023.9
Sant'Anna di Vinadio 13-08-2020 12:40 17 52 0 1023.8
Sant'Anna di Vinadio 13-08-2020 12:50 16.3 50 0 1023.8
Sant'Anna di Vinadio 13-08-2020 13:00 16.6 50 0 1023.7
Sant'Anna di Vinadio 13-08-2020 13:10 16.6 48 0 1023.7
Sant'Anna di Vinadio 13-08-2020 13:20 16.9 47 0 1023.7
Sant'Anna di Vinadio 13-08-2020 13:30 16.4 48 0 1023.5
Sant'Anna di Vinadio 13-08-2020 13:40 16.1 48 0 1023.6
Sant'Anna di Vinadio 13-08-2020 13:50 16.1 49 0 1023.6
Sant'Anna di Vinadio 13-08-2020 14:00 15.9 68 2.8 1024.4
Sant'Anna di Vinadio 13-08-2020 14:10 13.3 74 0.3 1024
Sant'Anna di Vinadio 13-08-2020 14:20 13.9 72 0 1023.8
Sant'Anna di Vinadio 13-08-2020 14:30 14 66 0.1 1023.8
Sant'Anna di Vinadio 13-08-2020 14:40 14 66 0.5 1024.2
Sant'Anna di Vinadio 13-08-2020 14:50 13.2 71 0.3 1024.1
Sant'Anna di Vinadio 13-08-2020 15:00 13.2 71 0 1023.9
Sant'Anna di Vinadio 13-08-2020 15:10 13.8 66 0 1023.8
Sant'Anna di Vinadio 13-08-2020 15:20 14.5 62 0.1 1023.7
Sant'Anna di Vinadio 13-08-2020 15:30 14.6 62 0 1023.5
Sant'Anna di Vinadio 13-08-2020 15:40 15 63 0 1023.4
Sant'Anna di Vinadio 13-08-2020 15:50 14.8 61 0 1023.4
Sant'Anna di Vinadio 13-08-2020 16:00 14.7 61 0 1023.4
Sant'Anna di Vinadio 13-08-2020 16:10 14.7 62 0.1 1023.2
Sant'Anna di Vinadio 13-08-2020 16:20 14.7 62 0 1023.4
Sant'Anna di Vinadio 13-08-2020 16:30 14.8 63 0 1023.4
Sant'Anna di Vinadio 13-08-2020 16:40 15 62 0 1023.4
Sant'Anna di Vinadio 13-08-2020 16:50 15 62 0 1023.2
Sant'Anna di Vinadio 13-08-2020 17:00 14.7 68 0.2 1023.4
Sant'Anna di Vinadio 13-08-2020 17:10 13.9 78 0.9 1023.4
Sant'Anna di Vinadio 13-08-2020 17:20 13.2 78 0.1 1023.3
Sant'Anna di Vinadio 13-08-2020 17:30 13.5 74 0.1 1023.2
Sant'Anna di Vinadio 13-08-2020 17:40 13.5 70 0 1023.3
Sant'Anna di Vinadio 13-08-2020 17:50 13.4 70 0.1 1023.2
Sant'Anna di Vinadio 13-08-2020 18:00 13.6 69 0 1023.3
Sant'Anna di Vinadio 13-08-2020 18:10 13.9 66 0.1 1023.3
Sant'Anna di Vinadio 13-08-2020 18:20 14.2 64 0 1023.1
Sant'Anna di Vinadio 13-08-2020 18:30 14.3 64 0 1023
Sant'Anna di Vinadio 13-08-2020 18:40 14.3 60 0 1022.8
Sant'Anna di Vinadio 13-08-2020 18:50 14.4 59 0.1 1022.6
Sant'Anna di Vinadio 13-08-2020 19:00 14.6 57 0 1022.4
Sant'Anna di Vinadio 13-08-2020 19:10 14.6 57 0 1022.4
Sant'Anna di Vinadio 13-08-2020 19:20 14.6 59 0 1022.3
Sant'Anna di Vinadio 13-08-2020 19:30 14.6 59 0 1022.3
Sant'Anna di Vinadio 13-08-2020 19:40 14.5 60 0 1022.4
Sant'Anna di Vinadio 13-08-2020 19:50 14.4 61 0 1022.5
Sant'Anna di Vinadio 13-08-2020 20:00 14.4 60 0 1022.5
Sant'Anna di Vinadio 13-08-2020 20:10 14.4 60 0 1022.6
Sant'Anna di Vinadio 13-08-2020 20:20 14.3 67 0.1 1022.7
Sant'Anna di Vinadio 13-08-2020 20:30 13.5 72 0.4 1022.8
Sant'Anna di Vinadio 13-08-2020 20:40 13.1 74 0.1 1022.8
Sant'Anna di Vinadio 13-08-2020 20:50 13.4 73 0 1022.8
Sant'Anna di Vinadio 13-08-2020 21:00 13.6 70 0.1 1022.9
Sant'Anna di Vinadio 13-08-2020 21:10 13.6 69 0 1022.9
Sant'Anna di Vinadio 13-08-2020 21:20 13.5 70 0 1022.8
Sant'Anna di Vinadio 13-08-2020 21:30 13.6 70 0 1022.8
Sant'Anna di Vinadio 13-08-2020 21:40 13.6 69 0 1022.9
Sant'Anna di Vinadio 13-08-2020 21:50 13.7 68 0.1 1023
Sant'Anna di Vinadio 13-08-2020 22:00 13.7 67 0 1023
Sant'Anna di Vinadio 13-08-2020 22:10 13.7 68 0 1023
Sant'Anna di Vinadio 13-08-2020 22:20 13.6 68 0 1022.9
Sant'Anna di Vinadio 13-08-2020 22:30 13.7 68 0 1022.9
Sant'Anna di Vinadio 13-08-2020 22:40 13.6 68 0 1022.8
Sant'Anna di Vinadio 13-08-2020 22:50 13.6 69 0 1022.8
Sant'Anna di Vinadio 13-08-2020 23:00 13.7 67 0 1022.7
Sant'Anna di Vinadio 13-08-2020 23:10 13.7 67 0 1022.6
Sant'Anna di Vinadio 13-08-2020 23:20 13.7 67 0 1022.6
Sant'Anna di Vinadio 13-08-2020 23:30 13.9 66 0.1 1022.6
Sant'Anna di Vinadio 13-08-2020 23:40 13.8 66 0 1022.7
Sant'Anna di Vinadio 13-08-2020 23:50 13.9 65 0 1022.6
Sant'Anna di Vinadio 14-08-2020 00:00 13.9 65 0 1022.7
Sant'Anna di Vinadio 14-08-2020 00:10 13.8 63 0 1022.7
Sant'Anna di Vinadio 14-08-2020 00:20 14 62 0 1022.7
Sant'Anna di Vinadio 14-08-2020 00:30 14.1 62 0 1022.7
Sant'Anna di Vinadio 14-08-2020 00:40 14.1 64 0 1022.8
Sant'Anna di Vinadio 14-08-2020 00:50 13.9 77 0 1022.8
Sant'Anna di Vinadio 14-08-2020 01:00 12.5 78 0 1022.7
Sant'Anna di Vinadio 14-08-2020 01:10 12.3 79 0 1022.6
Sant'Anna di Vinadio 14-08-2020 01:20 12.4 75 0 1022.5
Sant'Anna di Vinadio 14-08-2020 01:30 12.2 76 0 1022.4
Sant'Anna di Vinadio 14-08-2020 01:40 12 76 0 1022.3
Sant'Anna di Vinadio 14-08-2020 01:50 12.7 73 0 1022.2
Sant'Anna di Vinadio 14-08-2020 02:00 12.9 68 0 1022.1
Sant'Anna di Vinadio 14-08-2020 02:10 13.1 67 0 1022
Sant'Anna di Vinadio 14-08-2020 02:20 13.2 66 0 1022
Sant'Anna di Vinadio 14-08-2020 02:30 13.3 62 0 1021.9
Sant'Anna di Vinadio 14-08-2020 02:40 13.5 60 0 1021.9
Sant'Anna di Vinadio 14-08-2020 02:50 13.4 59 0 1021.7
Sant'Anna di Vinadio 14-08-2020 03:00 13.6 57 0 1021.6
Sant'Anna di Vinadio 14-08-2020 03:10 13.7 57 0 1021.6
Sant'Anna di Vinadio 14-08-2020 03:20 13.7 57 0 1021.6
Sant'Anna di Vinadio 14-08-2020 03:30 13.7 56 0 1021.6
Sant'Anna di Vinadio 14-08-2020 03:40 13.6 57 0 1021.5
Sant'Anna di Vinadio 14-08-2020 03:50 13.6 56 0 1021.5
Sant'Anna di Vinadio 14-08-2020 04:00 13.5 57 0 1021.3
Sant'Anna di Vinadio 14-08-2020 04:10 13.4 57 0 1021.4
Sant'Anna di Vinadio 14-08-2020 04:20 13.4 57 0 1021.4
Sant'Anna di Vinadio 14-08-2020 04:30 0 0 0 1021.4

Riassuntivo giornaliero del 14-08-2020